createdAt,value
2019-05-19T00:02:26.724Z,57.30
2019-05-19T00:04:53.748Z,55.58
2019-05-19T00:07:20.810Z,53.75
2019-05-19T00:09:47.648Z,55.65
2019-05-19T00:12:14.594Z,56.83
2019-05-19T00:14:41.275Z,54.60
2019-05-19T00:17:09.037Z,55.90
2019-05-19T00:19:37.898Z,55.83
2019-05-19T00:22:04.505Z,56.35
2019-05-19T00:24:31.275Z,57.08
2019-05-19T00:26:59.343Z,57.27
2019-05-19T00:29:27.981Z,54.58
2019-05-19T00:31:54.752Z,58.83
2019-05-19T00:34:21.820Z,57.78
2019-05-19T00:36:48.551Z,57.25
2019-05-19T00:39:17.558Z,57.88
2019-05-19T00:41:44.388Z,58.92
2019-05-19T00:44:11.208Z,57.30
2019-05-19T00:46:38.206Z,58.98
2019-05-19T00:49:04.982Z,56.33
2019-05-19T00:51:32.221Z,59.15
2019-05-19T00:53:59.118Z,57.48
2019-05-19T00:56:26.257Z,57.20
2019-05-19T00:58:54.068Z,58.55
2019-05-19T01:01:20.772Z,59.50
2019-05-19T01:03:47.699Z,58.52
2019-05-19T01:06:16.278Z,57.73
2019-05-19T01:08:43.215Z,58.15
2019-05-19T01:11:10.291Z,59.65
2019-05-19T01:13:37.325Z,58.90
2019-05-19T01:16:04.249Z,59.48
2019-05-19T01:18:30.823Z,59.00
2019-05-19T01:20:57.728Z,60.40
2019-05-19T01:23:24.746Z,58.40
2019-05-19T01:25:51.469Z,58.75
2019-05-19T01:28:18.076Z,60.98
2019-05-19T01:30:45.386Z,58.20
2019-05-19T01:33:12.115Z,60.23
2019-05-19T01:35:38.711Z,60.40
2019-05-19T01:38:05.618Z,59.65
2019-05-19T01:40:32.569Z,60.92
2019-05-19T01:42:59.413Z,58.23
2019-05-19T01:45:27.323Z,59.45
2019-05-19T01:47:53.838Z,58.52
2019-05-19T01:50:20.637Z,59.67
2019-05-19T01:52:47.503Z,60.40
2019-05-19T01:55:14.499Z,62.20
2019-05-19T01:57:41.303Z,62.23
2019-05-19T02:00:09.121Z,62.25
2019-05-19T02:02:36.110Z,61.53
2019-05-19T02:05:05.329Z,62.70
2019-05-19T02:07:32.159Z,61.15
2019-05-19T02:09:59.429Z,59.42
2019-05-19T02:12:26.325Z,62.15
2019-05-19T02:14:53.747Z,62.78
2019-05-19T02:17:20.747Z,60.63
2019-05-19T02:19:48.327Z,61.48
2019-05-19T02:22:15.135Z,61.58
2019-05-19T02:24:42.292Z,61.23
2019-05-19T02:27:09.442Z,60.80
2019-05-19T02:29:36.154Z,63.78
2019-05-19T02:32:03.504Z,63.58
2019-05-19T02:34:30.417Z,61.98
2019-05-19T02:36:57.273Z,63.10
2019-05-19T02:39:24.840Z,62.45
2019-05-19T02:41:52.504Z,64.03
2019-05-19T02:44:21.173Z,64.60
2019-05-19T02:46:50.319Z,62.58
2019-05-19T02:49:18.023Z,62.95
2019-05-19T02:51:47.636Z,66.25
2019-05-19T02:54:14.653Z,64.58
2019-05-19T02:56:44.559Z,63.13
2019-05-19T02:59:12.801Z,63.02
2019-05-19T03:01:58.413Z,63.20
2019-05-19T03:04:25.516Z,64.30
2019-05-19T03:06:52.865Z,64.12
2019-05-19T03:09:20.003Z,64.25
2019-05-19T03:11:47.290Z,65.87
2019-05-19T03:14:14.606Z,64.58
2019-05-19T03:16:41.812Z,66.02
2019-05-19T03:19:08.890Z,65.35
2019-05-19T03:21:36.022Z,64.12
2019-05-19T03:24:03.491Z,67.32
2019-05-19T03:26:31.675Z,68.75
2019-05-19T03:29:00.415Z,68.80
2019-05-19T03:31:29.901Z,66.42
2019-05-19T03:34:01.532Z,65.65
2019-05-19T03:36:28.820Z,60.20
2019-05-19T03:38:56.520Z,62.23
2019-05-19T03:41:23.332Z,65.85
2019-05-19T03:43:49.943Z,65.32
2019-05-19T03:46:16.769Z,63.65
2019-05-19T03:48:43.674Z,63.58
2019-05-19T03:51:27.510Z,66.00
2019-05-19T03:53:39.686Z,72.10
2019-05-19T03:56:12.528Z,91.35
2019-05-19T03:58:41.764Z,69.42
2019-05-19T04:01:08.660Z,67.25
2019-05-19T04:03:35.537Z,69.30
2019-05-19T04:06:02.838Z,68.17
2019-05-19T04:08:29.610Z,69.27
2019-05-19T04:10:56.322Z,68.80
2019-05-19T04:13:23.600Z,71.20
2019-05-19T04:15:50.167Z,68.92
2019-05-19T04:18:16.787Z,77.10
2019-05-19T04:20:43.664Z,67.72
2019-05-19T04:23:12.500Z,69.05
2019-05-19T04:25:39.884Z,68.50
2019-05-19T04:28:06.857Z,70.67
2019-05-19T04:30:35.417Z,68.92
2019-05-19T04:33:02.411Z,75.55
2019-05-19T04:35:29.110Z,76.92
2019-05-19T04:37:56.399Z,77.78
2019-05-19T04:40:23.220Z,79.47
2019-05-19T04:42:53.663Z,74.60
2019-05-19T04:45:20.677Z,71.17
2019-05-19T04:47:47.818Z,71.37
2019-05-19T04:50:14.960Z,70.75
2019-05-19T04:52:43.094Z,69.82
2019-05-19T04:55:10.519Z,73.02
2019-05-19T04:57:37.518Z,80.10
2019-05-19T05:00:07.754Z,72.40
2019-05-19T05:02:34.741Z,70.27
2019-05-19T05:05:02.005Z,70.42
2019-05-19T05:07:28.717Z,70.57
2019-05-19T05:09:55.396Z,67.65
2019-05-19T05:12:22.325Z,70.45
2019-05-19T05:14:49.250Z,70.00
2019-05-19T05:17:17.252Z,69.22
2019-05-19T05:19:44.298Z,67.25
2019-05-19T05:22:21.652Z,70.12
2019-05-19T05:24:39.319Z,71.17
2019-05-19T05:27:09.169Z,69.45
2019-05-19T05:29:35.980Z,67.27
2019-05-19T05:32:08.548Z,68.42
2019-05-19T05:34:35.350Z,69.00
2019-05-19T05:37:02.309Z,69.58
2019-05-19T05:39:28.904Z,70.17
2019-05-19T05:41:55.546Z,70.80
2019-05-19T05:44:22.403Z,68.45
2019-05-19T05:46:48.945Z,69.05
2019-05-19T05:49:15.693Z,69.37
2019-05-19T05:51:42.470Z,71.82
2019-05-19T05:54:18.223Z,67.05
2019-05-19T05:56:45.331Z,70.30
2019-05-19T05:59:12.011Z,72.75
2019-05-19T06:01:38.580Z,78.85
2019-05-19T06:04:05.392Z,81.15
2019-05-19T06:06:32.313Z,73.07
2019-05-19T06:09:00.984Z,67.15
2019-05-19T06:11:28.181Z,68.22
2019-05-19T06:13:55.162Z,69.25
2019-05-19T06:16:24.988Z,69.75
2019-05-19T06:18:52.994Z,68.62
2019-05-19T06:21:20.170Z,68.65
2019-05-19T06:23:48.023Z,70.52
2019-05-19T06:26:17.746Z,69.92
2019-05-19T06:28:48.064Z,65.22
2019-05-19T06:31:18.402Z,70.70
2019-05-19T06:33:45.205Z,69.97
2019-05-19T06:36:12.013Z,67.70
2019-05-19T06:38:38.904Z,65.95
2019-05-19T06:41:06.583Z,66.95
2019-05-19T06:43:35.199Z,67.62
2019-05-19T06:46:01.916Z,70.25
2019-05-19T06:48:28.700Z,70.35
2019-05-19T06:50:55.377Z,65.47
2019-05-19T06:53:22.066Z,66.97
2019-05-19T06:55:49.022Z,69.30
2019-05-19T06:58:15.657Z,72.17
2019-05-19T07:00:42.523Z,66.75
2019-05-19T07:03:09.403Z,90.92
2019-05-19T07:05:36.085Z,66.80
2019-05-19T07:08:02.834Z,66.80
2019-05-19T07:10:29.529Z,62.65
2019-05-19T07:12:56.289Z,62.33
2019-05-19T07:15:22.966Z,63.17
2019-05-19T07:17:49.673Z,60.75
2019-05-19T07:20:16.349Z,59.98
2019-05-19T07:22:43.074Z,58.58
2019-05-19T07:25:10.029Z,58.40
2019-05-19T07:27:36.752Z,56.85
2019-05-19T07:30:06.603Z,52.65
2019-05-19T07:32:33.236Z,54.00
2019-05-19T07:34:59.917Z,54.58
2019-05-19T07:37:26.368Z,55.58
2019-05-19T07:39:52.808Z,54.55
2019-05-19T07:42:19.484Z,54.48
2019-05-19T07:44:46.226Z,50.80
2019-05-19T07:47:12.790Z,61.55
2019-05-19T07:49:39.560Z,54.67
2019-05-19T07:52:06.510Z,52.53
2019-05-19T07:54:33.342Z,51.20
2019-05-19T07:57:00.102Z,49.98
2019-05-19T07:59:26.543Z,51.95
2019-05-19T08:01:53.124Z,48.75
2019-05-19T08:04:19.612Z,49.30
2019-05-19T08:06:46.067Z,48.48
2019-05-19T08:09:12.730Z,53.38
2019-05-19T08:11:39.476Z,47.08
2019-05-19T08:14:06.078Z,49.15
2019-05-19T08:16:33.804Z,49.18
2019-05-19T08:19:02.590Z,50.75
2019-05-19T08:21:30.179Z,46.42
2019-05-19T08:24:00.721Z,46.63
2019-05-19T08:26:27.979Z,45.55
2019-05-19T08:28:54.579Z,43.73
2019-05-19T08:31:22.997Z,43.08
2019-05-19T08:33:49.604Z,44.95
2019-05-19T08:36:16.132Z,42.30
2019-05-19T08:38:42.731Z,43.10
2019-05-19T08:41:09.265Z,41.63
2019-05-19T08:43:35.945Z,42.78
2019-05-19T08:46:02.682Z,42.33
2019-05-19T08:48:29.267Z,41.02
2019-05-19T08:50:55.721Z,42.08
2019-05-19T08:53:22.105Z,41.40
2019-05-19T08:55:48.458Z,42.78
2019-05-19T08:58:15.114Z,42.73
2019-05-19T09:00:41.834Z,44.25
2019-05-19T09:03:08.544Z,44.85
2019-05-19T09:05:35.044Z,43.25
2019-05-19T09:08:01.668Z,42.10
2019-05-19T09:10:28.160Z,43.08
2019-05-19T09:12:54.723Z,43.35
2019-05-19T09:15:21.122Z,43.73
2019-05-19T09:17:48.601Z,43.28
2019-05-19T09:20:15.334Z,44.53
2019-05-19T09:22:41.677Z,58.00
2019-05-19T09:25:10.432Z,51.53
2019-05-19T09:27:37.078Z,48.38
2019-05-19T09:30:08.677Z,48.20
2019-05-19T09:32:35.117Z,47.38
2019-05-19T09:35:01.692Z,48.85
2019-05-19T09:37:28.412Z,47.03
2019-05-19T09:39:55.136Z,48.10
2019-05-19T09:42:21.522Z,47.70
2019-05-19T09:44:51.073Z,43.40
2019-05-19T09:47:17.902Z,44.23
2019-05-19T09:49:44.457Z,52.53
2019-05-19T09:52:11.141Z,44.50
2019-05-19T09:54:45.178Z,45.35
2019-05-19T09:57:06.184Z,42.78
2019-05-19T09:59:32.915Z,41.98
2019-05-19T10:01:59.470Z,40.48
2019-05-19T10:04:25.983Z,40.43
2019-05-19T10:06:52.442Z,40.92
2019-05-19T10:09:55.280Z,41.33
2019-05-19T10:12:21.577Z,43.25
2019-05-19T10:14:48.002Z,41.50
2019-05-19T10:17:14.434Z,42.53
2019-05-19T10:19:41.435Z,44.13
2019-05-19T10:22:07.730Z,43.83
2019-05-19T10:24:34.331Z,43.33
2019-05-19T10:27:01.324Z,45.55
2019-05-19T10:29:28.599Z,44.03
2019-05-19T10:31:55.085Z,53.70
2019-05-19T10:34:21.699Z,43.63
2019-05-19T10:36:48.120Z,45.10
2019-05-19T10:39:14.580Z,44.38
2019-05-19T10:41:41.176Z,44.35
2019-05-19T10:44:07.741Z,57.80
2019-05-19T10:46:34.359Z,42.70
2019-05-19T10:49:00.831Z,42.88
2019-05-19T10:51:27.413Z,40.65
2019-05-19T10:53:54.006Z,42.05
2019-05-19T10:56:20.648Z,41.60
2019-05-19T10:58:47.203Z,41.75
2019-05-19T11:01:13.742Z,43.38
2019-05-19T11:03:40.270Z,42.45
2019-05-19T11:06:06.835Z,41.83
2019-05-19T11:08:33.253Z,40.90
2019-05-19T11:10:59.789Z,43.73
2019-05-19T11:13:26.362Z,43.98
2019-05-19T11:15:52.771Z,44.58
2019-05-19T11:18:19.345Z,43.38
2019-05-19T11:20:45.842Z,44.98
2019-05-19T11:23:12.316Z,45.20
2019-05-19T11:25:50.672Z,45.28
2019-05-19T11:28:09.325Z,45.43
2019-05-19T11:30:35.875Z,42.90
2019-05-19T11:33:02.705Z,45.38
2019-05-19T11:35:29.156Z,42.50
2019-05-19T11:37:55.614Z,51.83
2019-05-19T11:40:21.998Z,53.92
2019-05-19T11:42:48.557Z,44.53
2019-05-19T11:45:15.459Z,43.75
2019-05-19T11:47:41.899Z,44.27
2019-05-19T11:50:09.064Z,46.08
2019-05-19T11:52:35.434Z,43.92
2019-05-19T11:55:03.464Z,44.65
2019-05-19T11:57:30.023Z,43.25
2019-05-19T11:59:56.460Z,42.40
2019-05-19T12:02:24.247Z,43.68
2019-05-19T12:04:50.651Z,44.58
2019-05-19T12:07:17.109Z,43.73
2019-05-19T12:09:43.410Z,45.83
2019-05-19T12:12:09.817Z,44.35
2019-05-19T12:14:36.286Z,46.25
2019-05-19T12:17:02.991Z,45.40
2019-05-19T12:19:29.481Z,42.78
2019-05-19T12:21:57.857Z,44.08
2019-05-19T12:24:24.555Z,43.48
2019-05-19T12:26:51.122Z,42.83
2019-05-19T12:29:17.588Z,44.13
2019-05-19T12:31:44.044Z,42.13
2019-05-19T12:34:10.347Z,44.90
2019-05-19T12:36:36.682Z,43.15
2019-05-19T12:39:05.030Z,42.58
2019-05-19T12:41:32.253Z,42.55
2019-05-19T12:43:58.721Z,43.58
2019-05-19T12:46:25.122Z,39.38
2019-05-19T12:48:51.674Z,42.98
2019-05-19T12:51:18.093Z,39.13
2019-05-19T12:53:44.564Z,40.17
2019-05-19T12:56:11.017Z,39.30
2019-05-19T12:58:37.449Z,39.05
2019-05-19T13:01:03.734Z,39.95
2019-05-19T13:03:30.150Z,38.88
2019-05-19T13:05:56.446Z,40.30
2019-05-19T13:08:22.815Z,40.75
2019-05-19T13:10:49.260Z,39.92
2019-05-19T13:13:15.546Z,37.58
2019-05-19T13:15:41.872Z,36.23
2019-05-19T13:18:10.190Z,37.70
2019-05-19T13:20:37.129Z,35.98
2019-05-19T13:23:03.718Z,34.78
2019-05-19T13:25:30.108Z,35.25
2019-05-19T13:27:58.678Z,36.33
2019-05-19T13:30:25.195Z,35.28
2019-05-19T13:32:51.613Z,34.90
2019-05-19T13:35:18.165Z,35.20
2019-05-19T13:37:44.769Z,36.00
2019-05-19T13:40:11.691Z,36.48
2019-05-19T13:42:38.231Z,34.45
2019-05-19T13:45:07.507Z,34.35
2019-05-19T13:47:34.282Z,38.02
2019-05-19T13:50:00.794Z,36.98
2019-05-19T13:52:27.375Z,35.92
2019-05-19T13:54:53.943Z,36.50
2019-05-19T13:57:20.285Z,38.28
2019-05-19T13:59:46.642Z,35.92
2019-05-19T14:02:13.046Z,34.70
2019-05-19T14:04:39.497Z,35.68
2019-05-19T14:07:06.628Z,36.60
2019-05-19T14:09:33.366Z,35.30
2019-05-19T14:11:59.912Z,35.08
2019-05-19T14:14:26.221Z,34.85
2019-05-19T14:16:52.822Z,35.15
2019-05-19T14:19:19.379Z,34.08
2019-05-19T14:21:45.850Z,33.25
2019-05-19T14:24:12.330Z,33.10
2019-05-19T14:26:39.791Z,32.50
2019-05-19T14:29:06.408Z,33.73
2019-05-19T14:31:33.201Z,32.20
2019-05-19T14:33:59.952Z,33.95
2019-05-19T14:36:26.550Z,31.48
2019-05-19T14:39:05.028Z,31.42
2019-05-19T14:41:34.491Z,30.75
2019-05-19T14:44:01.497Z,31.27
2019-05-19T14:46:30.094Z,29.90
2019-05-19T14:48:56.624Z,30.65
2019-05-19T14:51:23.113Z,31.20
2019-05-19T14:53:49.800Z,31.30
2019-05-19T14:56:18.434Z,32.53
2019-05-19T14:58:45.040Z,32.50
2019-05-19T15:01:11.629Z,33.15
2019-05-19T15:03:38.216Z,31.42
2019-05-19T15:06:04.736Z,32.63
2019-05-19T15:08:31.635Z,33.65
2019-05-19T15:10:58.507Z,32.85
2019-05-19T15:13:25.172Z,32.55
2019-05-19T15:15:51.675Z,32.05
2019-05-19T15:18:18.340Z,32.73
2019-05-19T15:20:44.766Z,33.02
2019-05-19T15:23:11.360Z,33.70
2019-05-19T15:25:37.882Z,34.25
2019-05-19T15:28:05.534Z,33.05
2019-05-19T15:30:33.552Z,31.33
2019-05-19T15:32:59.941Z,31.42
2019-05-19T15:35:26.399Z,32.15
2019-05-19T15:37:52.734Z,33.10
2019-05-19T15:40:19.301Z,30.72
2019-05-19T15:42:46.304Z,30.68
2019-05-19T15:45:13.585Z,30.82
2019-05-19T15:47:40.292Z,30.97
2019-05-19T15:50:07.206Z,32.33
2019-05-19T15:52:34.889Z,32.98
2019-05-19T15:55:01.818Z,31.20
2019-05-19T15:57:28.798Z,32.05
2019-05-19T15:59:55.662Z,31.75
2019-05-19T16:02:23.265Z,31.82
2019-05-19T16:04:49.883Z,33.88
2019-05-19T16:07:17.072Z,33.88
2019-05-19T16:09:48.333Z,32.78
2019-05-19T16:14:43.882Z,33.95
2019-05-19T16:17:10.556Z,34.00
2019-05-19T16:19:37.059Z,32.45
2019-05-19T16:22:03.594Z,33.38
2019-05-19T16:24:30.409Z,34.50
2019-05-19T16:27:01.629Z,34.38
2019-05-19T16:29:29.502Z,34.57
2019-05-19T16:31:56.517Z,34.78
2019-05-19T16:34:25.259Z,32.13
2019-05-19T16:36:53.319Z,34.23
2019-05-19T16:39:22.291Z,34.90
2019-05-19T16:41:52.888Z,34.80
2019-05-19T16:44:19.936Z,34.67
2019-05-19T16:46:46.722Z,36.30
2019-05-19T16:49:13.635Z,35.25
2019-05-19T16:51:41.056Z,35.88
2019-05-19T16:54:12.417Z,35.92
2019-05-19T16:56:39.214Z,34.73
2019-05-19T16:59:06.088Z,36.05
2019-05-19T17:01:33.626Z,36.42
2019-05-19T17:04:00.933Z,36.88
2019-05-19T17:06:28.070Z,38.10
2019-05-19T17:08:54.778Z,36.93
2019-05-19T17:11:23.606Z,38.55
2019-05-19T17:13:50.452Z,38.65
2019-05-19T17:16:17.359Z,38.98
2019-05-19T17:18:44.223Z,40.12
2019-05-19T17:21:11.115Z,41.60
2019-05-19T17:23:39.502Z,40.15
2019-05-19T17:26:08.396Z,43.13
2019-05-19T17:28:42.147Z,41.88
2019-05-19T17:31:09.672Z,40.95
2019-05-19T17:33:38.165Z,44.18
2019-05-19T17:36:06.551Z,42.50
2019-05-19T17:38:34.389Z,42.70
2019-05-19T17:41:03.290Z,43.65
2019-05-19T17:43:31.086Z,44.73
2019-05-19T17:46:02.634Z,43.40
2019-05-19T17:48:31.671Z,43.05
2019-05-19T17:51:00.532Z,42.48
2019-05-19T17:53:26.975Z,42.33
2019-05-19T17:55:53.829Z,43.30
2019-05-19T17:58:23.209Z,41.33
2019-05-19T18:00:49.870Z,42.50
2019-05-19T18:03:16.920Z,42.48
2019-05-19T18:05:43.741Z,41.50
2019-05-19T18:08:10.630Z,42.10
2019-05-19T18:10:37.290Z,43.68
2019-05-19T18:13:03.910Z,44.75
2019-05-19T18:15:30.786Z,42.67
2019-05-19T18:17:59.302Z,43.00
2019-05-19T18:20:25.724Z,43.95
2019-05-19T18:22:52.195Z,43.42
2019-05-19T18:25:18.706Z,43.58
2019-05-19T18:27:45.429Z,40.15
2019-05-19T18:30:12.330Z,41.95
2019-05-19T18:32:39.106Z,38.73
2019-05-19T18:35:06.137Z,37.50
2019-05-19T18:37:33.806Z,34.85
2019-05-19T18:40:00.403Z,34.38
2019-05-19T18:42:28.905Z,32.93
2019-05-19T18:44:55.421Z,33.75
2019-05-19T18:47:22.167Z,33.88
2019-05-19T18:49:48.848Z,34.03
2019-05-19T18:52:15.654Z,34.35
2019-05-19T18:54:42.267Z,32.63
2019-05-19T18:57:10.567Z,32.70
2019-05-19T18:59:46.801Z,32.73
2019-05-19T19:02:06.007Z,32.25
2019-05-19T19:04:32.795Z,32.15
2019-05-19T19:06:59.353Z,32.30
2019-05-19T19:09:27.325Z,31.73
2019-05-19T19:11:55.782Z,33.02
2019-05-19T19:14:22.399Z,31.02
2019-05-19T19:16:49.010Z,34.33
2019-05-19T19:19:15.611Z,32.60
2019-05-19T19:21:42.040Z,33.95
2019-05-19T19:24:08.686Z,33.75
2019-05-19T19:26:35.624Z,33.13
2019-05-19T19:29:02.293Z,35.17
2019-05-19T19:31:28.944Z,34.25
2019-05-19T19:33:56.946Z,32.65
2019-05-19T19:36:23.822Z,33.58
2019-05-19T19:38:50.997Z,32.70
2019-05-19T19:41:17.618Z,34.80
2019-05-19T19:43:44.605Z,34.23
2019-05-19T19:46:11.941Z,34.55
2019-05-19T19:48:38.546Z,34.45
2019-05-19T19:51:05.246Z,34.95
2019-05-19T19:53:32.456Z,35.15
2019-05-19T19:55:59.247Z,34.50
2019-05-19T19:58:25.808Z,34.67
2019-05-19T20:00:52.442Z,33.63
2019-05-19T20:03:18.962Z,34.55
2019-05-19T20:05:47.517Z,34.80
2019-05-19T20:08:15.230Z,33.90
2019-05-19T20:10:41.937Z,34.88
2019-05-19T20:13:09.182Z,33.30
2019-05-19T20:15:37.285Z,33.35
2019-05-19T20:18:04.219Z,34.53
2019-05-19T20:20:30.911Z,34.45
2019-05-19T20:22:59.420Z,34.98
2019-05-19T20:25:26.097Z,34.43
2019-05-19T20:27:52.837Z,34.18
2019-05-19T20:30:34.576Z,35.03
2019-05-19T20:32:48.070Z,37.17
2019-05-19T20:35:14.988Z,35.33
2019-05-19T20:37:41.956Z,37.98
2019-05-19T20:40:09.949Z,36.28
2019-05-19T20:42:36.420Z,35.65
2019-05-19T20:45:03.638Z,36.80
2019-05-19T20:47:30.765Z,36.98
2019-05-19T20:49:57.491Z,35.75
2019-05-19T20:52:24.433Z,35.15
2019-05-19T20:54:53.626Z,35.55
2019-05-19T20:57:20.596Z,37.50
2019-05-19T20:59:47.223Z,35.83
2019-05-19T21:02:13.788Z,38.25
2019-05-19T21:04:40.333Z,38.13
2019-05-19T21:07:07.886Z,36.42
2019-05-19T21:09:34.498Z,39.98
2019-05-19T21:12:00.941Z,37.15
2019-05-19T21:14:27.722Z,40.17
2019-05-19T21:16:54.644Z,42.10
2019-05-19T21:19:21.625Z,43.52
2019-05-19T21:21:48.542Z,40.12
2019-05-19T21:24:16.059Z,40.38
2019-05-19T21:26:43.029Z,39.05
2019-05-19T21:29:09.642Z,40.98
2019-05-19T21:31:36.688Z,40.12
2019-05-19T21:34:03.641Z,40.17
2019-05-19T21:36:30.798Z,37.48
2019-05-19T21:38:57.576Z,37.88
2019-05-19T21:41:24.534Z,38.38
2019-05-19T21:43:51.442Z,39.95
2019-05-19T21:46:18.468Z,38.15
2019-05-19T21:48:45.192Z,38.40
2019-05-19T21:51:11.876Z,39.25
2019-05-19T21:53:38.583Z,37.33
2019-05-19T21:56:05.504Z,38.73
2019-05-19T21:58:32.488Z,37.10
2019-05-19T22:00:59.292Z,35.38
2019-05-19T22:03:26.502Z,34.73
2019-05-19T22:05:53.831Z,33.75
2019-05-19T22:08:21.807Z,35.40
2019-05-19T22:10:48.648Z,32.75
2019-05-19T22:13:15.592Z,33.88
2019-05-19T22:15:42.359Z,36.35
2019-05-19T22:18:09.051Z,35.60
2019-05-19T22:20:35.820Z,36.95
2019-05-19T22:23:02.722Z,37.13
2019-05-19T22:25:29.725Z,38.02
2019-05-19T22:27:56.540Z,37.88
2019-05-19T22:30:23.807Z,40.15
2019-05-19T22:32:50.563Z,43.50
2019-05-19T22:35:17.885Z,40.05
2019-05-19T22:37:45.127Z,41.18
2019-05-19T22:40:12.502Z,38.20
2019-05-19T22:42:39.344Z,39.53
2019-05-19T22:45:08.463Z,39.33
2019-05-19T22:47:35.651Z,39.33
2019-05-19T22:50:04.833Z,38.95
2019-05-19T22:52:33.741Z,40.75
2019-05-19T22:55:00.804Z,39.95
2019-05-19T22:57:27.507Z,40.03
2019-05-19T22:59:54.432Z,39.25
2019-05-19T23:02:21.440Z,37.50
2019-05-19T23:04:48.281Z,37.85
2019-05-19T23:07:17.221Z,36.60
2019-05-19T23:09:45.144Z,35.63
2019-05-19T23:12:11.786Z,36.48
2019-05-19T23:14:38.599Z,34.90
2019-05-19T23:17:06.818Z,36.15
2019-05-19T23:19:33.839Z,35.68
2019-05-19T23:22:00.556Z,34.83
2019-05-19T23:24:27.182Z,34.67
2019-05-19T23:26:53.894Z,33.35
2019-05-19T23:29:20.850Z,30.60
2019-05-19T23:31:47.849Z,30.80
2019-05-19T23:34:14.435Z,31.33
2019-05-19T23:36:41.105Z,32.35
2019-05-19T23:39:07.794Z,33.48
2019-05-19T23:41:34.488Z,32.25
2019-05-19T23:44:01.381Z,31.37
2019-05-19T23:46:28.981Z,32.65
2019-05-19T23:48:55.893Z,31.75
2019-05-19T23:51:25.437Z,30.62
2019-05-19T23:53:52.105Z,28.95
2019-05-19T23:56:18.994Z,29.98
2019-05-19T23:58:46.272Z,29.10
